LSZA 200120Z AUTO 17002KT 9999 NCD 17/14 Q1027 LSZA 200050Z AUTO VRB02KT 9999 NCD 17/14 Q1027 LSZA 200020Z AUTO VRB01KT 9999 NCD 18/13 Q1027 LSZA 192350Z AUTO VRB02KT 9999 NCD 18/14 Q1027 LSZA 192320Z AUTO VRB02KT 9999 NCD 18/14 Q1027 LSZA 192250Z AUTO VRB01KT 9999 NCD 18/14 Q1027 LSZA 192220Z AUTO VRB02KT 9999 NCD 19/14 Q1027 LSZA 192150Z AUTO VRB01KT 9999 NCD 20/14 Q1027 LSZA 192120Z AUTO 17005KT 120V210 9999 NCD 21/14 Q1027 LSZA 192050Z AUTO 16003KT 120V190 9999 NCD 21/13 Q1026 LSZA 192020Z AUTO VRB03KT 9999 FEW100 22/13 Q1026 LSZA 191950Z AUTO VRB02KT 9999 NSC 22/13 Q1026 LSZA 191920Z AUTO VRB02KT 9999 FEW070 BKN085 BKN090 //////TCU 23/14 Q1026 LSZA 191850Z AUTO 20003KT 120V230 9999 BKN080 SCT///CB 23/14 Q1026 LSZA 191820Z AUTO VRB02KT 9999 SCT080 //////TCU 23/13 Q1026 LSZA 191750Z AUTO VRB02KT 9999 //////TCU 24/13 Q1025 LSZA 191720Z 19004KT 150V220 CAVOK 26/12 Q1025 LSZA 191650Z AUTO 19006KT 9999 NCD 27/12 Q1025 LSZA 191620Z AUTO 19005KT 140V210 9999 FEW085 27/11 Q1025 LSZA 191550Z 20007KT CAVOK 27/11 Q1025 LSZA 191520Z 19007KT CAVOK 27/12 Q1025 LSZA 191450Z 19007KT 9999 FEW065 27/12 Q1025 NOSIG LSZA 191420Z 19007KT 160V220 9999 FEW065 27/13 Q1025 LSZA 191350Z 19007KT 9999 FEW065 27/13 Q1025 LSZA 191320Z 19006KT 9999 FEW065 27/12 Q1025 LSZA 191250Z 19006KT 9999 FEW065 26/12 Q1026 LSZA 191220Z 19007KT 9999 FEW065 26/12 Q1026 NOSIG LSZA 191150Z 19006KT 9999 FEW065 26/12 Q1026 NOSIG LSZA 191120Z 19006KT 9999 FEW065 26/13 Q1026 NOSIG LSZA 191050Z 19006KT 150V220 9999 FEW065 26/12 Q1027 NOSIG LSZA 191020Z 17005KT 130V210 9999 FEW065 25/11 Q1027 NOSIG LSZA 190950Z 18005KT 130V210 9999 FEW065 24/11 Q1027 NOSIG LSZA 190920Z 20004KT 9999 FEW065 24/11 Q1027 NOSIG LSZA 190850Z 19004KT 140V210 9999 FEW065 23/10 Q1027 NOSIG LSZA 190820Z 19004KT 9999 FEW065 23/11 Q1028 NOSIG LSZA 190750Z 19005KT 150V220 9999 FEW065 22/09 Q1028 NOSIG LSZA 190720Z 18004KT 140V210 9999 FEW065 22/08 Q1028 NOSIG LSZA 190650Z AUTO 19005KT 9999 FEW090 21/11 Q1028 LSZA 190620Z VRB01KT 9999 FEW050 SCT095 21/12 Q1028 NOSIG LSZA 190550Z 17002KT 9999 FEW050 BKN095 20/13 Q1028 NOSIG LSZA 190520Z AUTO 16002KT 9999 BKN075 BKN095 19/12 Q1028 LSZA 190450Z AUTO VRB01KT 9999 SCT075 BKN090 19/13 Q1027 LSZA 190420Z AUTO VRB01KT 9999 SCT075 SCT085 BKN095 19/13 Q1027 LSZA 190350Z AUTO VRB03KT 9999 OVC070 19/12 Q1027 LSZA 190320Z AUTO VRB01KT 9999 BKN070 19/12 Q1027 LSZA 190250Z AUTO VRB02KT 9999 SCT065 BKN095 20/12 Q1027 LSZA 190220Z AUTO 22004KT 9999 BKN065 20/12 Q1026 LSZA 190150Z AUTO VRB02KT 9999 OVC065 21/11 Q1026 LSZA 190120Z AUTO 19003KT 160V230 9999 BKN065 21/12 Q1026 LSZA 190050Z AUTO 18003KT 140V210 9999 SCT050 BKN060 21/13 Q1026 LSZA 190020Z AUTO 19004KT 150V230 9999 OVC048 22/13 Q1026 LSZA 182350Z AUTO 19004KT 9999 BKN050 22/13 Q1026 LSZA 182320Z AUTO 21004KT 150V250 9999 OVC049 22/12 Q1025 LSZA 182250Z AUTO 24005KT 190V310 9999 OVC050 22/12 Q1025 LSZA 182220Z AUTO 21005KT 9999 OVC050 23/13 Q1025 LSZA 182150Z AUTO 20006KT 9999 BKN050 23/13 Q1025 LSZA 182120Z AUTO 20006KT 170V230 9999 BKN050 23/14 Q1024 LSZA 182050Z AUTO 21005KT 170V240 9999 BKN050 24/14 Q1024 LSZA 182020Z AUTO 20005KT 140V230 9999 SCT050 BKN060 24/14 Q1024 LSZA 181950Z AUTO 21004KT 170V240 9999 SCT050 BKN060 23/15 Q1023 LSZA 181920Z AUTO 20004KT 160V260 9999 FEW055TCU BKN065 24/15 Q1023 LSZA 181850Z AUTO VRB02KT 9999 BKN055TCU 24/15 Q1022 LSZA 181820Z AUTO 21004KT 160V240 9999 BKN055 24/15 Q1022 LSZA 181750Z AUTO 19004KT 170V240 9999 BKN055 25/15 Q1021 LSZA 181720Z AUTO 20006KT 160V220 9999 FEW060 26/16 Q1021 LSZA 181650Z AUTO 20007KT 9999 //////TCU 26/16 Q1021 LSZA 181620Z AUTO 20007KT 9999 FEW070 27/16 Q1021 LSZA 181550Z 20009KT 9999 SCT060 FEW061TCU 27/17 Q1021 NOSIG LSZA 181520Z 20008KT 9999 SCT060 FEW061TCU 27/16 Q1021 NOSIG LSZA 181450Z 20009KT 9999 SCT050 FEW051TCU 28/16 Q1021 NOSIG LSZA 181420Z 20009KT 9999 SCT050 28/15 Q1021 NOSIG LSZA 181350Z 20008KT 9999 SCT058 FEW060TCU 28/16 Q1021 NOSIG

METAR Messwerte "LUGANO (PVT/AUT)" LSZA

Zurück zur Übersicht

Ortsname
Ländercode / m ü. NN
Zeit Temperatur Taupunkt Rel.
Luftfeuchte
Luftdruck:
Altimeter
NN
Station
Wind in Beaufort
(Knoten)
Sichtweite
(Meter)
Wolken
(Meter über Grund)
Wettererscheinung
LUGANO (PVT/AUT)
CH 276
Fr 20.05. 03:20171482 %1027
1027
994
S 1 (2)>= 10000  
LUGANO (PVT/AUT)
CH 276
Fr 20.05. 02:50171482 %1027
1027
994
Uml 1 (2)>= 10000  
LUGANO (PVT/AUT)
CH 276
Fr 20.05. 02:20181373 %1027
1027
994
Uml 1 (1)>= 10000  
LUGANO (PVT/AUT)
CH 276
Fr 20.05. 01:50181477 %1027
1027
994
Uml 1 (2)>= 10000  
LUGANO (PVT/AUT)
CH 276
Fr 20.05. 01:20181477 %1027
1027
994
Uml 1 (2)>= 10000  
LUGANO (PVT/AUT)
CH 276
Fr 20.05. 00:50181477 %1027
1027
994
Uml 1 (1)>= 10000  
LUGANO (PVT/AUT)
CH 276
Fr 20.05. 00:20191473 %1027
1027
994
Uml 1 (2)>= 10000  
LUGANO (PVT/AUT)
CH 276
Do 19.05. 23:50201468 %1027
1027
994
Uml 1 (1)>= 10000  
LUGANO (PVT/AUT)
CH 276
Do 19.05. 23:20211464 %1027
1026
994
S 2 (5)
OSO - SSW
>= 10000  
LUGANO (PVT/AUT)
CH 276
Do 19.05. 22:50211360 %1026
1025
993
SSO 2 (3)
OSO - S
>= 10000  
LUGANO (PVT/AUT)
CH 276
Do 19.05. 22:20221357 %1026
1025
993
Uml 2 (3)>= 10000Leicht bewölkt (3000) 
LUGANO (PVT/AUT)
CH 276
Do 19.05. 21:50221357 %1026
1025
993
Uml 1 (2)>= 10000Nicht signifikant 
LUGANO (PVT/AUT)
CH 276
Do 19.05. 21:20231457 %1026
1025
993
Uml 1 (2)>= 10000Stark bewölkt (2700)
Stark bewölkt (2600)
Leicht bewölkt (2100)
 
LUGANO (PVT/AUT)
CH 276
Do 19.05. 20:50231457 %1026
1025
993
SSW 2 (3)
OSO - SW
>= 10000Stark bewölkt (2400) 
LUGANO (PVT/AUT)
CH 276
Do 19.05. 20:20231353 %1026
1025
993
Uml 1 (2)>= 10000Wolkig (2400) 
LUGANO (PVT/AUT)
CH 276
Do 19.05. 19:50241350 %1025
1024
992
Uml 1 (2)>= 10000  
LUGANO (PVT/AUT)
CH 276
Do 19.05. 19:20261242 %1025
1024
992
S 2 (4)
SSO - SW
>= 10000Nicht signifikant 
LUGANO (PVT/AUT)
CH 276
Do 19.05. 18:50271239 %1025
1024
992
S 2 (6)>= 10000  
LUGANO (PVT/AUT)
CH 276
Do 19.05. 18:20271137 %1025
1024
992
S 2 (5)
SO - SSW
>= 10000Leicht bewölkt (2600) 
LUGANO (PVT/AUT)
CH 276
Do 19.05. 17:50271137 %1025
1024
992
SSW 3 (7)>= 10000Nicht signifikant 
LUGANO (PVT/AUT)
CH 276
Do 19.05. 17:20271239 %1025
1024
992
S 3 (7)>= 10000Nicht signifikant 
LUGANO (PVT/AUT)
CH 276
Do 19.05. 16:50271239 %1025
1024
992
S 3 (7)>= 10000Leicht bewölkt (2000) 
LUGANO (PVT/AUT)
CH 276
Do 19.05. 16:20271342 %1025
1024
992
S 3 (7)
SSO - SW
>= 10000Leicht bewölkt (2000) 
LUGANO (PVT/AUT)
CH 276
Do 19.05. 15:50271342 %1025
1024
992
S 3 (7)>= 10000Leicht bewölkt (2000) 
LUGANO (PVT/AUT)
CH 276
Do 19.05. 15:20271239 %1025
1024
992
S 2 (6)>= 10000Leicht bewölkt (2000) 
LUGANO (PVT/AUT)
CH 276
Do 19.05. 14:50261242 %1026
1025
993
S 2 (6)>= 10000Leicht bewölkt (2000) 
LUGANO (PVT/AUT)
CH 276
Do 19.05. 14:20261242 %1026
1025
993
S 3 (7)>= 10000Leicht bewölkt (2000) 
LUGANO (PVT/AUT)
CH 276
Do 19.05. 13:50261242 %1026
1025
993
S 2 (6)>= 10000Leicht bewölkt (2000) 
LUGANO (PVT/AUT)
CH 276
Do 19.05. 13:20261345 %1026
1025
993
S 2 (6)>= 10000Leicht bewölkt (2000) 
LUGANO (PVT/AUT)
CH 276
Do 19.05. 12:50261242 %1027
1026
994
S 2 (6)
SSO - SW
>= 10000Leicht bewölkt (2000) 
LUGANO (PVT/AUT)
CH 276
Do 19.05. 12:20251141 %1027
1026
994
S 2 (5)
SO - SSW
>= 10000Leicht bewölkt (2000) 
LUGANO (PVT/AUT)
CH 276
Do 19.05. 11:50241144 %1027
1026
994
S 2 (5)
SO - SSW
>= 10000Leicht bewölkt (2000) 
LUGANO (PVT/AUT)
CH 276
Do 19.05. 11:20241144 %1027
1026
994
SSW 2 (4)>= 10000Leicht bewölkt (2000) 
LUGANO (PVT/AUT)
CH 276
Do 19.05. 10:50231044 %1027
1026
994
S 2 (4)
SO - SSW
>= 10000Leicht bewölkt (2000) 
LUGANO (PVT/AUT)
CH 276
Do 19.05. 10:20231147 %1028
1027
995
S 2 (4)>= 10000Leicht bewölkt (2000) 
LUGANO (PVT/AUT)
CH 276
Do 19.05. 09:5022943 %1028
1027
995
S 2 (5)
SSO - SW
>= 10000Leicht bewölkt (2000) 
LUGANO (PVT/AUT)
CH 276
Do 19.05. 09:2022841 %1028
1027
995
S 2 (4)
SO - SSW
>= 10000Leicht bewölkt (2000) 
LUGANO (PVT/AUT)
CH 276
Do 19.05. 08:50211153 %1028
1027
995
S 2 (5)>= 10000Leicht bewölkt (2700) 
LUGANO (PVT/AUT)
CH 276
Do 19.05. 08:20211256 %1028
1027
995
Uml 1 (1)>= 10000Wolkig (2900)
Leicht bewölkt (1500)
 
LUGANO (PVT/AUT)
CH 276
Do 19.05. 07:50201364 %1028
1028
995
S 1 (2)>= 10000Stark bewölkt (2900)
Leicht bewölkt (1500)
 
LUGANO (PVT/AUT)
CH 276
Do 19.05. 07:20191264 %1028
1028
995
SSO 1 (2)>= 10000Stark bewölkt (2900)
Stark bewölkt (2300)
 
LUGANO (PVT/AUT)
CH 276
Do 19.05. 06:50191368 %1027
1027
994
Uml 1 (1)>= 10000Stark bewölkt (2700)
Wolkig (2300)
 
LUGANO (PVT/AUT)
CH 276
Do 19.05. 06:20191368 %1027
1027
994
Uml 1 (1)>= 10000Stark bewölkt (2900)
Wolkig (2600)
Wolkig (2300)
 
LUGANO (PVT/AUT)
CH 276
Do 19.05. 05:50191264 %1027
1027
994
Uml 2 (3)>= 10000Bedeckt (2100) 
LUGANO (PVT/AUT)
CH 276
Do 19.05. 05:20191264 %1027
1027
994
Uml 1 (1)>= 10000Stark bewölkt (2100) 
LUGANO (PVT/AUT)
CH 276
Do 19.05. 04:50201260 %1027
1027
994
Uml 1 (2)>= 10000Stark bewölkt (2900)
Wolkig (2000)
 
LUGANO (PVT/AUT)
CH 276
Do 19.05. 04:20201260 %1026
1026
993
SW 2 (4)>= 10000Stark bewölkt (2000) 
LUGANO (PVT/AUT)
CH 276
Do 19.05. 03:50211153 %1026
1025
993
Uml 1 (2)>= 10000Bedeckt (2000) 
LUGANO (PVT/AUT)
CH 276
Do 19.05. 03:20211256 %1026
1025
993
S 2 (3)
SSO - SW
>= 10000Stark bewölkt (2000) 
LUGANO (PVT/AUT)
CH 276
Do 19.05. 02:50211360 %1026
1025
993
S 2 (3)
SO - SSW
>= 10000Stark bewölkt (1800)
Wolkig (1500)
 
LUGANO (PVT/AUT)
CH 276
Do 19.05. 02:20221357 %1026
1025
993
S 2 (4)
SSO - SW
>= 10000Bedeckt (1500) 
LUGANO (PVT/AUT)
CH 276
Do 19.05. 01:50221357 %1026
1025
993
S 2 (4)>= 10000Stark bewölkt (1500) 
LUGANO (PVT/AUT)
CH 276
Do 19.05. 01:20221253 %1025
1024
992
SSW 2 (4)
SSO - WSW
>= 10000Bedeckt (1500) 
LUGANO (PVT/AUT)
CH 276
Do 19.05. 00:50221253 %1025
1024
992
WSW 2 (5)
S - NW
>= 10000Bedeckt (1500) 
LUGANO (PVT/AUT)
CH 276
Do 19.05. 00:20231353 %1025
1024
992
SSW 2 (5)>= 10000Bedeckt (1500) 
LUGANO (PVT/AUT)
CH 276
Mi 18.05. 23:50231353 %1025
1024
992
SSW 2 (6)>= 10000Stark bewölkt (1500) 
LUGANO (PVT/AUT)
CH 276
Mi 18.05. 23:20231457 %1024
1023
991
SSW 2 (6)
S - SW
>= 10000Stark bewölkt (1500) 
LUGANO (PVT/AUT)
CH 276
Mi 18.05. 22:50241454 %1024
1023
991
SSW 2 (5)
S - WSW
>= 10000Stark bewölkt (1500) 
LUGANO (PVT/AUT)
CH 276
Mi 18.05. 22:20241454 %1024
1023
991
SSW 2 (5)
SO - SW
>= 10000Stark bewölkt (1800)
Wolkig (1500)
 
LUGANO (PVT/AUT)
CH 276
Mi 18.05. 21:50231561 %1023
1022
990
SSW 2 (4)
S - WSW
>= 10000Stark bewölkt (1800)
Wolkig (1500)
 
LUGANO (PVT/AUT)
CH 276
Mi 18.05. 21:20241557 %1023
1022
990
SSW 2 (4)
SSO - W
>= 10000Stark bewölkt (2000)
Leicht bewölkt (1700)
 
LUGANO (PVT/AUT)
CH 276
Mi 18.05. 20:50241557 %1022
1021
989
Uml 1 (2)>= 10000Stark bewölkt (1700) 
LUGANO (PVT/AUT)
CH 276
Mi 18.05. 20:20241557 %1022
1021
989
SSW 2 (4)
SSO - WSW
>= 10000Stark bewölkt (1700) 
LUGANO (PVT/AUT)
CH 276
Mi 18.05. 19:50251554 %1021
1020
988
S 2 (4)
S - WSW
>= 10000Stark bewölkt (1700) 
LUGANO (PVT/AUT)
CH 276
Mi 18.05. 19:20261654 %1021
1020
988
SSW 2 (6)
SSO - SW
>= 10000Leicht bewölkt (1800) 
LUGANO (PVT/AUT)
CH 276
Mi 18.05. 18:50261654 %1021
1020
988
SSW 3 (7)>= 10000  
LUGANO (PVT/AUT)
CH 276
Mi 18.05. 18:20271651 %1021
1020
988
SSW 3 (7)>= 10000Leicht bewölkt (2100) 
LUGANO (PVT/AUT)
CH 276
Mi 18.05. 17:50271754 %1021
1020
988
SSW 3 (9)>= 10000Leicht bewölkt (1900)
Wolkig (1800)
 
LUGANO (PVT/AUT)
CH 276
Mi 18.05. 17:20271651 %1021
1020
988
SSW 3 (8)>= 10000Leicht bewölkt (1900)
Wolkig (1800)
 
LUGANO (PVT/AUT)
CH 276
Mi 18.05. 16:50281648 %1021
1020
988
SSW 3 (9)>= 10000Leicht bewölkt (1600)
Wolkig (1500)
 
LUGANO (PVT/AUT)
CH 276
Mi 18.05. 16:20281545 %1021
1020
988
SSW 3 (9)>= 10000Wolkig (1500) 
LUGANO (PVT/AUT)
CH 276
Mi 18.05. 15:50281648 %1021
1020
988
SSW 3 (8)>= 10000Leicht bewölkt (1800)
Wolkig (1800)
 

Altimeter: Einstellung am Altimeter (Höhenmesser), die Höhe 0 muss auf diesen Luftdruckwert zeigen, damit das Gerät die Stationshöhe richtig anzeigt.

NN: Luftdruck reduziert auf "Normal Null", auf Meereshöhe, dieser von der Temperatur abhängige Wert wird bisweilen unkorrekt einfach als "Luftdruck" bezeichnet. Eigentlich nur eine fiktive Größe, die es erlaubt, Stationen auf unterschiedlichen Höhen miteinander zu vergleichen.

Station: Realer Luftdruck an der Station.